Time;durP1;ratioP1;P1;durP2;ratioP2;P2;SDS_P1;SDS_P2;PMS_P1;PMS_P2;Temp;Humidity;BMP_temperature;BMP_pressure;BME280_temperature;BME280_humidity;BME280_pressure;Samples;Min_cycle;Max_cycle;Signal;HPM_P1;HPM_P2
2022/01/11 00:02:16;;;;;;;;;37.50;32.75;;;;;;;;5095792;27;45309;-75
2022/01/11 00:04:41;;;;;;;;;26.00;22.25;;;;;;;;5094656;27;45311;-74
2022/01/11 00:07:11;;;;;;;;;40.00;33.25;;;;;;;;5095464;27;45447;-73
2022/01/11 00:09:41;;;;;;;;;34.75;28.25;;;;;;;;5080366;27;45443;-74
2022/01/11 00:12:08;;;;;;;;;27.25;24.75;;;;;;;;5083866;27;45370;-75
2022/01/11 00:14:34;;;;;;;;;29.25;28.50;;;;;;;;5083674;27;45445;-73
2022/01/11 00:17:00;;;;;;;;;35.75;28.75;;;;;;;;5079543;27;45444;-72
2022/01/11 00:19:25;;;;;;;;;26.25;25.75;;;;;;;;5095474;27;46229;-72
2022/01/11 00:21:51;;;;;;;;;26.00;20.75;;;;;;;;5095973;27;45559;-75
2022/01/11 00:24:30;;;;;;;;;25.75;23.00;;;;;;;;5084122;27;45349;-76
2022/01/11 00:26:56;;;;;;;;;30.00;27.00;;;;;;;;5083920;27;45636;-75
2022/01/11 00:29:21;;;;;;;;;20.00;17.00;;;;;;;;5083702;27;47049;-73
2022/01/11 00:31:48;;;;;;;;;29.25;23.25;;;;;;;;5082893;27;45316;-74
2022/01/11 00:34:16;;;;;;;;;28.50;24.50;;;;;;;;5094668;27;45241;-74
2022/01/11 00:36:42;;;;;;;;;24.25;19.25;;;;;;;;5094860;27;45406;-74
2022/01/11 00:39:08;;;;;;;;;26.25;19.00;;;;;;;;5091693;27;47518;-74
2022/01/11 00:41:33;;;;;;;;;24.25;19.00;;;;;;;;5092764;27;45476;-74
2022/01/11 00:43:58;;;;;;;;;24.25;18.75;;;;;;;;5094171;27;45439;-74
2022/01/11 00:46:23;;;;;;;;;22.00;19.00;;;;;;;;5094285;27;45458;-74
2022/01/11 00:48:49;;;;;;;;;17.50;17.25;;;;;;;;5096030;27;45954;-74
2022/01/11 00:51:14;;;;;;;;;22.00;20.00;;;;;;;;5094354;27;45284;-75
2022/01/11 00:53:42;;;;;;;;;24.75;17.00;;;;;;;;5094342;27;46417;-75
2022/01/11 00:56:07;;;;;;;;;24.00;21.00;;;;;;;;5092799;27;45440;-75
2022/01/11 00:58:33;;;;;;;;;19.75;17.75;;;;;;;;5094006;27;45174;-75
2022/01/11 01:00:58;;;;;;;;;26.75;20.50;;;;;;;;5095386;27;45296;-74
2022/01/11 01:03:24;;;;;;;;;20.00;18.75;;;;;;;;5094669;27;45459;-74
2022/01/11 01:05:49;;;;;;;;;26.25;23.50;;;;;;;;5093684;27;45470;-74
2022/01/11 01:08:15;;;;;;;;;24.50;23.00;;;;;;;;5091622;27;47203;-75
2022/01/11 01:10:45;;;;;;;;;30.50;24.75;;;;;;;;5093954;27;45315;-75
2022/01/11 01:13:14;;;;;;;;;31.00;27.00;;;;;;;;5094023;27;45346;-74
2022/01/11 01:15:39;;;;;;;;;23.75;21.75;;;;;;;;5095967;27;45492;-74
2022/01/11 01:18:05;;;;;;;;;25.75;23.00;;;;;;;;5092370;27;46369;-75
2022/01/11 01:20:30;;;;;;;;;27.25;24.25;;;;;;;;5092348;27;45511;-73
2022/01/11 01:22:55;;;;;;;;;29.75;27.50;;;;;;;;5090941;27;45463;-75
2022/01/11 01:25:20;;;;;;;;;27.75;25.00;;;;;;;;5093846;27;45771;-75
2022/01/11 01:27:49;;;;;;;;;29.50;26.75;;;;;;;;5095486;27;45962;-75
2022/01/11 01:30:16;;;;;;;;;26.50;24.00;;;;;;;;5093642;27;45516;-75
2022/01/11 01:32:41;;;;;;;;;37.25;27.75;;;;;;;;5093878;27;45479;-74
2022/01/11 01:35:07;;;;;;;;;33.00;29.25;;;;;;;;5093713;27;45390;-74
2022/01/11 01:37:32;;;;;;;;;29.75;27.75;;;;;;;;5093528;27;45943;-73
2022/01/11 01:39:57;;;;;;;;;30.75;27.00;;;;;;;;5094605;27;45271;-75
2022/01/11 01:42:25;;;;;;;;;34.50;31.25;;;;;;;;5094135;27;45454;-75
2022/01/11 01:44:51;;;;;;;;;35.00;27.25;;;;;;;;5093404;27;45521;-75
2022/01/11 01:47:16;;;;;;;;;36.00;31.75;;;;;;;;5093001;27;47017;-75
2022/01/11 01:49:42;;;;;;;;;37.50;30.00;;;;;;;;5093747;27;45334;-73
2022/01/11 01:52:07;;;;;;;;;36.75;34.50;;;;;;;;5093850;27;45433;-75
2022/01/11 01:54:32;;;;;;;;;36.50;30.25;;;;;;;;5094926;27;45517;-74
2022/01/11 01:56:58;;;;;;;;;31.00;25.75;;;;;;;;5091858;27;46025;-74
2022/01/11 01:59:23;;;;;;;;;46.00;30.25;;;;;;;;5091506;27;45595;-74
2022/01/11 02:01:49;;;;;;;;;40.25;32.25;;;;;;;;5093437;27;47366;-74
2022/01/11 02:04:18;;;;;;;;;31.50;31.50;;;;;;;;5093344;27;45531;-74
2022/01/11 02:06:45;;;;;;;;;38.25;29.25;;;;;;;;5094856;27;46465;-73
2022/01/11 02:09:11;;;;;;;;;40.00;29.25;;;;;;;;5093100;27;45543;-73
2022/01/11 02:11:36;;;;;;;;;28.00;26.00;;;;;;;;5093405;27;45413;-75
2022/01/11 02:14:01;;;;;;;;;32.00;22.25;;;;;;;;5094813;27;45405;-74
2022/01/11 02:16:26;;;;;;;;;33.50;31.25;;;;;;;;5096726;27;46164;-75
2022/01/11 02:18:52;;;;;;;;;30.75;26.25;;;;;;;;5098751;27;45349;-74
2022/01/11 02:21:17;;;;;;;;;31.25;26.75;;;;;;;;5097051;27;45393;-74
2022/01/11 02:23:43;;;;;;;;;33.00;30.00;;;;;;;;5096282;27;46357;-75
2022/01/11 02:26:08;;;;;;;;;27.50;26.25;;;;;;;;5096372;27;45955;-75
2022/01/11 02:28:34;;;;;;;;;31.75;27.50;;;;;;;;5096742;27;45283;-74
2022/01/11 02:31:01;;;;;;;;;28.00;27.50;;;;;;;;5097924;27;45361;-74
2022/01/11 02:33:33;;;;;;;;;32.00;25.75;;;;;;;;5097460;27;45459;-73
2022/01/11 02:36:03;;;;;;;;;32.25;28.75;;;;;;;;5094966;27;47023;-75
2022/01/11 02:38:29;;;;;;;;;44.50;27.75;;;;;;;;5094365;27;45520;-74
2022/01/11 02:40:54;;;;;;;;;34.75;25.25;;;;;;;;5096444;27;45467;-75
2022/01/11 02:43:19;;;;;;;;;31.50;25.00;;;;;;;;5096550;27;45399;-75
2022/01/11 02:45:44;;;;;;;;;29.00;22.25;;;;;;;;5097934;27;46458;-74
2022/01/11 02:48:10;;;;;;;;;31.00;27.75;;;;;;;;5095948;27;45575;-74
2022/01/11 02:50:35;;;;;;;;;27.25;24.75;;;;;;;;5096388;27;45503;-74
2022/01/11 02:53:00;;;;;;;;;36.00;27.00;;;;;;;;5095998;27;45307;-74
2022/01/11 02:55:25;;;;;;;;;26.25;22.50;;;;;;;;5096053;27;46194;-74
2022/01/11 02:57:51;;;;;;;;;36.00;30.00;;;;;;;;5097878;27;45398;-74
2022/01/11 03:00:18;;;;;;;;;32.50;27.50;;;;;;;;5096043;27;45466;-74
2022/01/11 03:02:44;;;;;;;;;27.00;24.75;;;;;;;;5095936;27;45512;-75
2022/01/11 03:05:10;;;;;;;;;30.00;26.25;;;;;;;;5095976;27;45485;-75
2022/01/11 03:07:35;;;;;;;;;22.75;21.75;;;;;;;;5095490;27;45445;-75
2022/01/11 03:10:08;;;;;;;;;26.75;25.25;;;;;;;;5097169;27;45321;-75
2022/01/11 03:12:33;;;;;;;;;28.50;26.75;;;;;;;;5096018;27;45438;-74
2022/01/11 03:14:59;;;;;;;;;21.75;19.75;;;;;;;;5094555;27;46159;-74
2022/01/11 03:17:25;;;;;;;;;35.75;23.25;;;;;;;;5094101;27;45391;-74
2022/01/11 03:19:51;;;;;;;;;35.25;28.50;;;;;;;;5095855;27;45563;-74
2022/01/11 03:22:16;;;;;;;;;33.00;25.25;;;;;;;;5095629;27;45527;-75
2022/01/11 03:24:44;;;;;;;;;29.25;23.75;;;;;;;;5097408;27;45590;-75
2022/01/11 03:27:12;;;;;;;;;26.50;25.00;;;;;;;;5095545;27;45240;-74
2022/01/11 03:29:39;;;;;;;;;24.50;22.00;;;;;;;;5095667;27;45531;-74
2022/01/11 03:32:05;;;;;;;;;27.25;21.50;;;;;;;;5094013;27;45394;-75
2022/01/11 03:34:31;;;;;;;;;26.75;20.50;;;;;;;;5095318;27;46179;-74
2022/01/11 03:36:57;;;;;;;;;26.75;20.25;;;;;;;;5096257;27;45271;-75
2022/01/11 03:39:23;;;;;;;;;26.00;22.25;;;;;;;;5096089;27;45575;-76
2022/01/11 03:41:48;;;;;;;;;21.75;19.75;;;;;;;;5095429;27;45362;-74
2022/01/11 03:44:14;;;;;;;;;27.25;22.00;;;;;;;;5094950;27;45386;-75
2022/01/11 03:46:39;;;;;;;;;23.75;23.25;;;;;;;;5095021;27;45462;-75
2022/01/11 03:49:04;;;;;;;;;28.50;24.75;;;;;;;;5096029;27;45211;-74
2022/01/11 03:51:29;;;;;;;;;20.50;19.25;;;;;;;;5096190;27;45187;-74
2022/01/11 03:54:10;;;;;;;;;26.50;20.75;;;;;;;;5093493;27;45430;-75
2022/01/11 03:56:36;;;;;;;;;29.25;22.50;;;;;;;;5093357;27;45373;-74
2022/01/11 03:59:06;;;;;;;;;27.00;21.75;;;;;;;;5095192;27;45472;-74
2022/01/11 04:01:31;;;;;;;;;24.75;22.50;;;;;;;;5095051;27;45330;-75
2022/01/11 04:03:57;;;;;;;;;26.75;21.25;;;;;;;;5096387;27;45420;-74
2022/01/11 04:06:22;;;;;;;;;27.50;23.75;;;;;;;;5094964;27;45359;-75
2022/01/11 04:08:47;;;;;;;;;27.75;23.75;;;;;;;;5094903;27;45448;-74
2022/01/11 04:11:12;;;;;;;;;29.75;26.75;;;;;;;;5094975;27;45485;-74
2022/01/11 04:13:38;;;;;;;;;26.25;21.00;;;;;;;;5094913;27;45845;-75
2022/01/11 04:16:04;;;;;;;;;25.75;22.75;;;;;;;;5095304;27;45314;-75
2022/01/11 04:18:29;;;;;;;;;22.50;19.00;;;;;;;;5096039;27;45364;-75
2022/01/11 04:20:54;;;;;;;;;30.25;22.75;;;;;;;;5094115;27;45455;-74
2022/01/11 04:23:19;;;;;;;;;26.25;20.25;;;;;;;;5094463;27;46141;-75
2022/01/11 04:25:45;;;;;;;;;27.25;19.25;;;;;;;;5094240;27;45524;-75
2022/01/11 04:28:10;;;;;;;;;33.50;26.00;;;;;;;;5094372;27;45542;-75
2022/01/11 04:30:36;;;;;;;;;34.00;26.00;;;;;;;;5096383;27;45360;-73
2022/01/11 04:33:02;;;;;;;;;27.00;21.00;;;;;;;;5092830;27;46189;-72
2022/01/11 04:35:27;;;;;;;;;27.50;20.75;;;;;;;;5092113;27;45419;-74
2022/01/11 04:37:52;;;;;;;;;30.50;25.25;;;;;;;;5094047;27;45445;-75
2022/01/11 04:40:17;;;;;;;;;27.25;21.75;;;;;;;;5094631;27;45280;-74
2022/01/11 04:42:43;;;;;;;;;30.50;28.50;;;;;;;;5095855;27;45480;-75
2022/01/11 04:45:11;;;;;;;;;29.00;25.75;;;;;;;;5093936;27;45425;-74
2022/01/11 04:47:36;;;;;;;;;25.00;21.50;;;;;;;;5093980;27;45390;-75
2022/01/11 04:50:02;;;;;;;;;29.50;22.50;;;;;;;;5093604;27;45414;-74
2022/01/11 04:52:27;;;;;;;;;43.50;27.75;;;;;;;;5092617;27;48137;-74
2022/01/11 04:54:52;;;;;;;;;30.75;27.50;;;;;;;;5095831;27;45290;-74
2022/01/11 04:57:17;;;;;;;;;30.00;25.75;;;;;;;;5092661;27;45244;-73
2022/01/11 04:59:43;;;;;;;;;30.75;28.25;;;;;;;;5094059;27;45421;-75
2022/01/11 05:02:08;;;;;;;;;25.75;23.25;;;;;;;;5093542;27;46074;-75
2022/01/11 05:04:33;;;;;;;;;29.00;25.25;;;;;;;;5093889;27;45547;-75
2022/01/11 05:06:58;;;;;;;;;34.50;28.00;;;;;;;;5095123;27;45414;-75
2022/01/11 05:09:24;;;;;;;;;35.50;28.50;;;;;;;;5093978;27;45471;-74
2022/01/11 05:11:49;;;;;;;;;32.75;27.00;;;;;;;;5092073;27;45471;-73
2022/01/11 05:14:15;;;;;;;;;30.25;23.25;;;;;;;;5091955;27;45465;-75
2022/01/11 05:16:40;;;;;;;;;38.00;32.50;;;;;;;;5093582;27;45292;-74
2022/01/11 05:19:12;;;;;;;;;26.25;25.75;;;;;;;;5093745;27;45512;-75
2022/01/11 05:21:37;;;;;;;;;30.00;25.75;;;;;;;;5093713;27;47051;-75
2022/01/11 05:24:02;;;;;;;;;37.00;27.75;;;;;;;;5093653;27;45424;-75
2022/01/11 05:26:27;;;;;;;;;30.25;25.00;;;;;;;;5093472;27;45554;-75
2022/01/11 05:28:53;;;;;;;;;33.25;28.25;;;;;;;;5093312;27;45526;-73
2022/01/11 05:31:18;;;;;;;;;33.75;30.50;;;;;;;;5093001;27;46006;-75
2022/01/11 05:33:43;;;;;;;;;29.25;27.00;;;;;;;;5094871;27;45325;-73
2022/01/11 05:36:08;;;;;;;;;31.50;29.75;;;;;;;;5093470;27;45522;-75
2022/01/11 05:38:33;;;;;;;;;35.75;30.50;;;;;;;;5093410;27;45551;-74
2022/01/11 05:40:59;;;;;;;;;25.75;22.25;;;;;;;;5093082;27;47011;-75
2022/01/11 05:43:24;;;;;;;;;34.00;32.75;;;;;;;;5092609;27;45447;-72
2022/01/11 05:45:49;;;;;;;;;29.50;25.25;;;;;;;;5095034;27;45444;-74
2022/01/11 05:48:14;;;;;;;;;34.75;26.75;;;;;;;;5092794;27;45360;-73
2022/01/11 05:50:40;;;;;;;;;32.50;26.50;;;;;;;;5094664;27;46255;-75
2022/01/11 05:53:05;;;;;;;;;31.25;27.00;;;;;;;;5095074;27;45338;-75
2022/01/11 05:55:30;;;;;;;;;31.50;25.00;;;;;;;;5096493;27;45398;-75
2022/01/11 05:57:55;;;;;;;;;34.75;29.75;;;;;;;;5098015;27;45403;-74
2022/01/11 06:00:21;;;;;;;;;35.50;30.75;;;;;;;;5094949;27;46414;-74
2022/01/11 06:02:48;;;;;;;;;38.75;29.00;;;;;;;;5095586;27;45650;-74
2022/01/11 06:05:15;;;;;;;;;41.50;34.00;;;;;;;;5096237;27;45218;-74
2022/01/11 06:07:41;;;;;;;;;31.50;26.25;;;;;;;;5095964;27;45372;-74
2022/01/11 06:10:06;;;;;;;;;34.75;28.75;;;;;;;;5096129;27;45625;-74
2022/01/11 06:12:31;;;;;;;;;35.75;26.50;;;;;;;;5097490;27;45338;-74
2022/01/11 06:14:57;;;;;;;;;38.75;32.50;;;;;;;;5095610;27;45313;-74
2022/01/11 06:17:22;;;;;;;;;35.25;26.50;;;;;;;;5095325;27;45472;-74
2022/01/11 06:19:47;;;;;;;;;29.25;27.75;;;;;;;;5095597;27;46235;-74
2022/01/11 06:22:12;;;;;;;;;31.75;29.75;;;;;;;;5095227;27;45229;-74
2022/01/11 06:24:38;;;;;;;;;34.00;27.75;;;;;;;;5097235;27;45275;-75
2022/01/11 06:27:03;;;;;;;;;29.50;25.00;;;;;;;;5095167;27;45729;-75
2022/01/11 06:29:28;;;;;;;;;34.75;30.00;;;;;;;;5094075;27;46185;-74
2022/01/11 06:31:53;;;;;;;;;37.00;33.00;;;;;;;;5093585;27;45371;-76
2022/01/11 06:34:19;;;;;;;;;36.75;29.00;;;;;;;;5095277;27;45436;-75
2022/01/11 06:36:44;;;;;;;;;34.25;26.50;;;;;;;;5096992;27;45385;-75
2022/01/11 06:39:09;;;;;;;;;34.50;32.00;;;;;;;;5094734;27;46112;-75
2022/01/11 06:41:35;;;;;;;;;35.75;30.00;;;;;;;;5092076;27;45505;-74
2022/01/11 06:44:00;;;;;;;;;37.75;34.25;;;;;;;;5095204;27;45364;-75
2022/01/11 06:46:26;;;;;;;;;50.00;39.50;;;;;;;;5093775;27;45517;-74
2022/01/11 06:48:51;;;;;;;;;34.00;25.50;;;;;;;;5096972;27;46121;-75
2022/01/11 06:51:17;;;;;;;;;36.75;31.50;;;;;;;;5094761;27;45490;-74
2022/01/11 06:53:42;;;;;;;;;28.50;24.00;;;;;;;;5095531;27;45446;-74
2022/01/11 06:56:07;;;;;;;;;27.00;23.75;;;;;;;;5095292;27;45439;-75
2022/01/11 06:58:32;;;;;;;;;31.25;21.50;;;;;;;;5095534;27;45418;-74
2022/01/11 07:00:57;;;;;;;;;32.50;28.75;;;;;;;;5095741;27;45338;-77
2022/01/11 07:03:23;;;;;;;;;38.75;29.25;;;;;;;;5095454;27;45392;-74
2022/01/11 07:05:48;;;;;;;;;39.50;30.75;;;;;;;;5094860;27;45409;-75
2022/01/11 07:08:13;;;;;;;;;40.25;33.00;;;;;;;;5092751;27;46344;-75
2022/01/11 07:10:38;;;;;;;;;38.75;35.50;;;;;;;;5092571;27;45401;-75
2022/01/11 07:13:04;;;;;;;;;35.25;29.50;;;;;;;;5094775;27;45272;-76
2022/01/11 07:15:30;;;;;;;;;34.75;26.75;;;;;;;;5095114;27;45624;-73
2022/01/11 07:17:55;;;;;;;;;47.00;34.75;;;;;;;;5093981;27;46042;-73
2022/01/11 07:20:22;;;;;;;;;30.75;27.25;;;;;;;;5093905;27;45304;-73
2022/01/11 07:22:47;;;;;;;;;38.00;31.25;;;;;;;;5094079;27;45403;-73
2022/01/11 07:25:13;;;;;;;;;38.00;31.25;;;;;;;;5092262;27;45506;-74
2022/01/11 07:27:38;;;;;;;;;37.50;31.50;;;;;;;;5094206;27;47607;-74
2022/01/11 07:30:04;;;;;;;;;47.50;40.00;;;;;;;;5093787;27;45464;-74
2022/01/11 07:32:31;;;;;;;;;38.50;33.75;;;;;;;;5093872;27;45627;-75
2022/01/11 07:34:56;;;;;;;;;45.75;37.00;;;;;;;;5094369;27;45560;-74
2022/01/11 07:37:21;;;;;;;;;41.75;36.00;;;;;;;;5093680;27;46548;-74
2022/01/11 07:39:47;;;;;;;;;46.25;35.25;;;;;;;;5095265;27;45480;-73
2022/01/11 07:42:12;;;;;;;;;48.25;37.25;;;;;;;;5093804;27;45399;-73
2022/01/11 07:44:37;;;;;;;;;46.00;39.50;;;;;;;;5093428;27;45478;-72
2022/01/11 07:47:04;;;;;;;;;45.50;37.75;;;;;;;;5091947;27;47056;-71
2022/01/11 07:49:29;;;;;;;;;32.00;26.75;;;;;;;;5092245;27;45253;-72
2022/01/11 07:51:55;;;;;;;;;37.75;32.50;;;;;;;;5095374;27;45379;-72
2022/01/11 07:54:20;;;;;;;;;30.00;29.00;;;;;;;;5095168;27;47884;-72
2022/01/11 07:56:45;;;;;;;;;46.25;38.50;;;;;;;;5093551;27;45502;-73
2022/01/11 07:59:11;;;;;;;;;46.25;39.00;;;;;;;;5092533;27;45700;-72
2022/01/11 08:01:36;;;;;;;;;43.25;36.00;;;;;;;;5091420;27;45397;-72
2022/01/11 08:04:02;;;;;;;;;51.50;38.50;;;;;;;;5094499;27;45480;-72
2022/01/11 08:06:27;;;;;;;;;39.25;29.00;;;;;;;;5093425;27;47146;-73
2022/01/11 08:08:52;;;;;;;;;36.25;33.50;;;;;;;;5092468;27;45493;-72
2022/01/11 08:11:17;;;;;;;;;32.50;29.25;;;;;;;;5090957;27;45413;-71
2022/01/11 08:13:43;;;;;;;;;50.25;39.00;;;;;;;;5091594;27;45468;-71
2022/01/11 08:16:08;;;;;;;;;61.00;46.75;;;;;;;;5092588;27;45479;-72
2022/01/11 08:18:33;;;;;;;;;48.50;38.25;;;;;;;;5094229;27;45877;-74
2022/01/11 08:20:58;;;;;;;;;44.25;34.25;;;;;;;;5092475;27;45508;-72
2022/01/11 08:23:23;;;;;;;;;42.25;36.00;;;;;;;;5092137;27;45404;-72
2022/01/11 08:25:49;;;;;;;;;43.25;37.00;;;;;;;;5090824;27;45495;-69
2022/01/11 08:28:14;;;;;;;;;43.50;36.75;;;;;;;;5091350;27;45569;-72
2022/01/11 08:30:39;;;;;;;;;41.75;33.75;;;;;;;;5092496;27;45848;-72
2022/01/11 08:33:05;;;;;;;;;45.75;36.25;;;;;;;;5092074;27;45451;-72
2022/01/11 08:35:31;;;;;;;;;42.25;35.75;;;;;;;;5090773;27;45929;-71
2022/01/11 08:37:56;;;;;;;;;54.25;41.25;;;;;;;;5092006;27;45312;-72
2022/01/11 08:40:22;;;;;;;;;45.00;36.75;;;;;;;;5093069;27;45451;-71
2022/01/11 08:42:48;;;;;;;;;37.25;34.00;;;;;;;;5094083;27;45499;-71
2022/01/11 08:45:13;;;;;;;;;43.75;36.25;;;;;;;;5092441;27;46080;-71
2022/01/11 08:47:38;;;;;;;;;43.00;38.25;;;;;;;;5091258;27;45416;-72
2022/01/11 08:50:05;;;;;;;;;39.75;36.25;;;;;;;;5092597;27;45347;-71
2022/01/11 08:52:30;;;;;;;;;52.75;40.00;;;;;;;;5092749;27;45291;-71
2022/01/11 08:54:55;;;;;;;;;44.25;34.00;;;;;;;;5092765;27;46129;-71
2022/01/11 08:57:21;;;;;;;;;52.75;37.75;;;;;;;;5090773;27;46035;-70
2022/01/11 08:59:47;;;;;;;;;36.75;34.00;;;;;;;;5091270;27;45460;-72
2022/01/11 09:02:12;;;;;;;;;51.50;40.75;;;;;;;;5091840;27;45437;-71
2022/01/11 09:04:38;;;;;;;;;43.25;37.50;;;;;;;;5091899;27;46066;-73
2022/01/11 09:07:03;;;;;;;;;47.25;39.00;;;;;;;;5092671;27;45393;-72
2022/01/11 09:09:31;;;;;;;;;51.00;38.25;;;;;;;;5093338;27;45379;-71
2022/01/11 09:11:57;;;;;;;;;46.75;40.00;;;;;;;;5092989;27;45548;-72
2022/01/11 09:14:22;;;;;;;;;43.50;39.25;;;;;;;;5094696;27;46284;-72
2022/01/11 09:16:48;;;;;;;;;51.25;39.25;;;;;;;;5092060;27;45383;-71
2022/01/11 09:19:14;;;;;;;;;57.25;41.50;;;;;;;;5092099;27;45513;-71
2022/01/11 09:21:39;;;;;;;;;47.50;38.25;;;;;;;;5093513;27;45470;-73
2022/01/11 09:24:05;;;;;;;;;48.25;39.00;;;;;;;;5095067;27;47049;-72
2022/01/11 09:26:30;;;;;;;;;52.50;42.50;;;;;;;;5094204;27;47702;-72
2022/01/11 09:28:56;;;;;;;;;59.00;40.00;;;;;;;;5096288;27;45526;-70
2022/01/11 09:31:21;;;;;;;;;42.75;35.50;;;;;;;;5095848;27;45461;-71
2022/01/11 09:33:46;;;;;;;;;53.00;37.00;;;;;;;;5096716;27;45756;-72
2022/01/11 09:36:12;;;;;;;;;56.75;45.25;;;;;;;;5094035;27;45487;-71
2022/01/11 09:38:37;;;;;;;;;60.25;42.75;;;;;;;;5094807;27;45403;-70
2022/01/11 09:41:02;;;;;;;;;56.00;44.00;;;;;;;;5095865;27;45486;-71
2022/01/11 09:43:28;;;;;;;;;58.25;42.00;;;;;;;;5095533;27;46304;-73
2022/01/11 09:45:54;;;;;;;;;55.50;39.50;;;;;;;;5097244;27;45397;-73
2022/01/11 09:48:20;;;;;;;;;51.75;42.25;;;;;;;;5093796;27;45459;-73
2022/01/11 09:50:45;;;;;;;;;55.25;41.25;;;;;;;;5093808;27;45592;-76
2022/01/11 09:53:11;;;;;;;;;44.00;37.75;;;;;;;;5097293;27;46942;-75
2022/01/11 09:55:36;;;;;;;;;62.75;49.00;;;;;;;;5107552;27;45457;-74
2022/01/11 09:58:03;;;;;;;;;57.00;46.50;;;;;;;;5096007;27;45357;-75
2022/01/11 10:00:28;;;;;;;;;59.00;45.25;;;;;;;;5095976;27;45495;-73
2022/01/11 10:02:54;;;;;;;;;55.50;43.50;;;;;;;;5095363;27;45432;-75
2022/01/11 10:05:19;;;;;;;;;59.25;47.00;;;;;;;;5094579;27;46325;-73
2022/01/11 10:07:44;;;;;;;;;50.00;40.00;;;;;;;;5095607;27;45338;-74
2022/01/11 10:10:12;;;;;;;;;50.50;41.75;;;;;;;;5095119;27;45318;-75
2022/01/11 10:12:41;;;;;;;;;53.00;38.00;;;;;;;;5096376;27;47084;-73
2022/01/11 10:15:06;;;;;;;;;51.00;40.75;;;;;;;;5095122;27;45350;-73
2022/01/11 10:17:37;;;;;;;;;53.25;40.00;;;;;;;;5094612;27;45470;-75
2022/01/11 10:20:13;;;;;;;;;59.25;48.00;;;;;;;;5094398;27;45277;-74
2022/01/11 10:22:53;;;;;;;;;57.50;42.75;;;;;;;;5093175;27;46220;-74
2022/01/11 10:25:19;;;;;;;;;51.75;43.00;;;;;;;;5094614;27;45634;-74
2022/01/11 10:27:51;;;;;;;;;50.00;40.00;;;;;;;;5096870;27;45444;-75
2022/01/11 10:30:18;;;;;;;;;54.50;42.50;;;;;;;;5093614;27;45645;-75
2022/01/11 10:32:47;;;;;;;;;55.75;40.50;;;;;;;;5094229;27;45735;-75
2022/01/11 10:35:14;;;;;;;;;49.25;39.50;;;;;;;;5092489;27;45560;-74
2022/01/11 10:37:39;;;;;;;;;55.50;43.75;;;;;;;;5095678;27;45508;-73
2022/01/11 10:40:14;;;;;;;;;55.50;39.25;;;;;;;;5096503;27;45464;-75
2022/01/11 10:42:45;;;;;;;;;62.50;47.00;;;;;;;;5095332;27;46338;-73
2022/01/11 10:45:14;;;;;;;;;50.25;42.75;;;;;;;;5094683;27;45427;-75
2022/01/11 10:47:44;;;;;;;;;57.25;45.75;;;;;;;;5091293;27;45417;-73
2022/01/11 10:50:28;;;;;;;;;62.75;48.50;;;;;;;;5095255;27;45510;-74
2022/01/11 10:52:55;;;;;;;;;59.50;46.00;;;;;;;;5094156;27;46800;-74
2022/01/11 10:55:22;;;;;;;;;50.00;42.00;;;;;;;;5094111;27;45220;-74
2022/01/11 10:57:54;;;;;;;;;61.25;47.00;;;;;;;;5096064;27;45400;-74
2022/01/11 11:00:22;;;;;;;;;48.25;41.00;;;;;;;;5093630;27;45585;-74
2022/01/11 11:02:59;;;;;;;;;59.00;44.25;;;;;;;;5091481;27;46144;-75
2022/01/11 11:05:35;;;;;;;;;56.25;42.75;;;;;;;;5091628;27;45463;-74
2022/01/11 11:08:05;;;;;;;;;52.00;40.25;;;;;;;;5093284;27;45442;-74
2022/01/11 11:10:32;;;;;;;;;62.00;46.75;;;;;;;;5094200;27;45469;-74
2022/01/11 11:12:57;;;;;;;;;67.50;50.25;;;;;;;;5094968;27;46166;-72
2022/01/11 11:15:31;;;;;;;;;62.00;46.50;;;;;;;;5094578;27;45316;-74
2022/01/11 11:17:56;;;;;;;;;50.75;39.50;;;;;;;;5094478;27;45583;-74
2022/01/11 11:20:21;;;;;;;;;62.50;48.00;;;;;;;;5093387;27;45409;-73
2022/01/11 11:22:47;;;;;;;;;61.00;44.25;;;;;;;;5093499;27;45964;-74
2022/01/11 11:25:12;;;;;;;;;41.25;35.25;;;;;;;;5093679;27;45447;-74
2022/01/11 11:27:37;;;;;;;;;52.00;41.00;;;;;;;;5096026;27;45192;-73
2022/01/11 11:30:02;;;;;;;;;41.50;34.50;;;;;;;;5092015;27;45608;-74
2022/01/11 11:32:28;;;;;;;;;47.50;40.00;;;;;;;;5092528;27;47000;-73
2022/01/11 11:34:54;;;;;;;;;39.50;34.50;;;;;;;;5094295;27;45453;-74
2022/01/11 11:37:28;;;;;;;;;61.75;48.75;;;;;;;;5078223;27;45609;-75
2022/01/11 11:39:55;;;;;;;;;64.25;48.50;;;;;;;;5090422;27;45565;-74
2022/01/11 11:42:22;;;;;;;;;58.50;48.50;;;;;;;;5094994;27;47170;-73
2022/01/11 11:44:48;;;;;;;;;50.00;39.75;;;;;;;;5094012;27;45459;-73
2022/01/11 11:47:13;;;;;;;;;39.00;33.75;;;;;;;;5090726;27;45444;-73
2022/01/11 11:49:52;;;;;;;;;56.25;42.75;;;;;;;;5079026;27;45523;-74
2022/01/11 11:52:23;;;;;;;;;45.00;36.00;;;;;;;;5077074;27;46530;-74
2022/01/11 11:54:50;;;;;;;;;41.25;35.00;;;;;;;;5078773;27;45342;-74
2022/01/11 11:57:16;;;;;;;;;48.25;39.50;;;;;;;;5082650;27;45501;-73
2022/01/11 11:59:50;;;;;;;;;51.75;41.25;;;;;;;;5082567;27;45283;-73
2022/01/11 12:02:28;;;;;;;;;51.50;39.75;;;;;;;;5082130;27;45464;-74
2022/01/11 12:04:54;;;;;;;;;41.75;33.75;;;;;;;;5081955;27;45543;-75
2022/01/11 12:07:25;;;;;;;;;51.00;40.50;;;;;;;;5077434;27;45332;-73
2022/01/11 12:09:51;;;;;;;;;43.50;35.75;;;;;;;;5090569;27;45220;-73
2022/01/11 12:12:36;;;;;;;;;52.25;38.75;;;;;;;;5093872;27;47206;-74
2022/01/11 12:15:22;;;;;;;;;48.50;36.50;;;;;;;;5091705;27;45541;-74
2022/01/11 12:17:48;;;;;;;;;46.00;38.00;;;;;;;;5091089;27;45444;-74
2022/01/11 12:20:33;;;;;;;;;52.25;41.25;;;;;;;;5090977;27;45430;-74
2022/01/11 12:22:58;;;;;;;;;40.25;35.50;;;;;;;;5087649;27;47327;-73
2022/01/11 12:25:30;;;;;;;;;42.75;35.50;;;;;;;;5093284;27;45421;-74
2022/01/11 12:28:01;;;;;;;;;48.50;40.25;;;;;;;;5090036;27;45414;-73
2022/01/11 12:30:26;;;;;;;;;40.25;32.50;;;;;;;;5092874;27;45287;-73
2022/01/11 12:33:10;;;;;;;;;37.25;33.75;;;;;;;;5091789;27;45491;-73
2022/01/11 12:35:51;;;;;;;;;90.67;78.33;;;;;;;;5092308;27;45434;-73
2022/01/11 12:38:16;;;;;;;;;51.25;40.00;;;;;;;;5092177;27;45452;-72
2022/01/11 12:40:43;;;;;;;;;48.50;39.50;;;;;;;;5092575;27;45418;-74
2022/01/11 12:43:16;;;;;;;;;48.25;36.25;;;;;;;;5091964;27;45485;-74
2022/01/11 12:45:58;;;;;;;;;43.25;35.75;;;;;;;;5093083;27;45421;-73
2022/01/11 12:48:57;;;;;;;;;45.50;36.50;;;;;;;;5091103;27;45709;-74
2022/01/11 12:51:27;;;;;;;;;42.75;36.00;;;;;;;;5047170;28;45315;-74
2022/01/11 12:54:11;;;;;;;;;42.00;33.50;;;;;;;;5048111;28;45392;-75
2022/01/11 12:56:36;;;;;;;;;47.25;38.00;;;;;;;;5048041;28;45502;-72
2022/01/11 12:59:03;;;;;;;;;55.75;44.75;;;;;;;;5048506;28;45527;-73
2022/01/11 13:01:28;;;;;;;;;48.50;37.50;;;;;;;;5048939;28;45419;-73
2022/01/11 13:03:57;;;;;;;;;44.75;37.00;;;;;;;;5049258;28;47303;-74
2022/01/11 13:06:43;;;;;;;;;49.50;37.25;;;;;;;;5049812;28;45962;-73
2022/01/11 13:09:11;;;;;;;;;38.00;33.00;;;;;;;;5047765;28;45735;-76
2022/01/11 13:11:37;;;;;;;;;46.25;37.50;;;;;;;;5044723;28;45444;-73
2022/01/11 13:14:18;;;;;;;;;45.00;36.25;;;;;;;;5046909;28;46005;-73
2022/01/11 13:16:48;;;;;;;;;50.00;40.75;;;;;;;;5046547;28;46378;-73
2022/01/11 13:19:14;;;;;;;;;44.00;36.00;;;;;;;;5048319;28;45554;-73
2022/01/11 13:21:40;;;;;;;;;41.75;34.25;;;;;;;;5049331;28;45970;-73
2022/01/11 13:24:11;;;;;;;;;64.75;51.00;;;;;;;;5047702;28;45792;-73
2022/01/11 13:26:36;;;;;;;;;51.25;40.50;;;;;;;;5060062;27;45584;-74
2022/01/11 13:29:02;;;;;;;;;47.75;37.50;;;;;;;;5089779;27;45359;-73
2022/01/11 13:31:28;;;;;;;;;42.75;33.50;;;;;;;;5090616;27;45770;-71
2022/01/11 13:33:58;;;;;;;;;45.00;37.00;;;;;;;;5093174;27;46994;-71
2022/01/11 13:36:27;;;;;;;;;49.25;38.50;;;;;;;;5090433;27;45469;-72
2022/01/11 13:38:57;;;;;;;;;45.25;36.25;;;;;;;;5089818;27;45580;-72
2022/01/11 13:41:33;;;;;;;;;47.50;35.50;;;;;;;;5089832;27;45679;-72
2022/01/11 13:43:59;;;;;;;;;41.75;32.75;;;;;;;;5091881;27;46041;-72
2022/01/11 13:46:26;;;;;;;;;46.00;35.00;;;;;;;;5088979;27;46553;-73
2022/01/11 13:48:52;;;;;;;;;50.25;39.25;;;;;;;;5088716;27;45475;-73
2022/01/11 13:51:30;;;;;;;;;52.75;41.75;;;;;;;;5091288;27;45508;-73
2022/01/11 13:53:57;;;;;;;;;50.00;39.75;;;;;;;;5089180;27;46378;-71
2022/01/11 13:56:22;;;;;;;;;45.75;36.00;;;;;;;;5091874;27;45492;-72
2022/01/11 13:58:52;;;;;;;;;44.00;37.00;;;;;;;;5091453;27;45425;-72
2022/01/11 14:01:18;;;;;;;;;49.00;41.75;;;;;;;;5091463;27;45420;-71
2022/01/11 14:03:43;;;;;;;;;42.50;33.50;;;;;;;;5092939;27;46090;-71
2022/01/11 14:06:13;;;;;;;;;48.50;37.75;;;;;;;;5090792;27;45472;-71
2022/01/11 14:08:42;;;;;;;;;45.75;36.50;;;;;;;;5091111;27;45406;-73
2022/01/11 14:11:10;;;;;;;;;49.50;39.50;;;;;;;;5094563;27;45439;-73
2022/01/11 14:13:35;;;;;;;;;43.25;34.75;;;;;;;;5094037;27;45463;-73
2022/01/11 14:16:20;;;;;;;;;47.50;39.75;;;;;;;;5095750;27;45398;-72